Terminal Aerodrome Forecast
Issued by NWS Wilmington, OH

Current Version | Previous Version | Graphics & Text | Print | Product List | Glossary On
Versions: 1 2 3 4 5 6 7 8 9 10 11 12 13 14 15 16 17 18 19 20 21 22 23 24
045
FTUS41 KILN 212338
TAFCVG
TAF
KCVG 212338Z 2200/2306 16003KT P6SM BKN110
     FM220900 09005KT P6SM SCT080 OVC140
     FM221300 08006KT P6SM OVC060
     FM221700 07008KT 6SM -SHRA BR OVC045
     FM221900 06010KT 5SM -SHRA BR OVC015
     FM222300 03011KT 5SM BR VCSH OVC009=

USA.gov is the U.S. government's official web portal to all federal, state and local government web resources and services.